createdAt,value
2022-12-28T00:00:26.950Z,73.16
2022-12-28T00:03:29.973Z,72.32
2022-12-28T00:06:35.528Z,72.03
2022-12-28T00:09:39.544Z,72.65
2022-12-28T00:12:43.500Z,72.11
2022-12-28T00:15:47.344Z,71.25
2022-12-28T00:18:50.067Z,70.71
2022-12-28T00:21:56.750Z,71.36
2022-12-28T00:25:00.803Z,71.70
2022-12-28T00:28:04.876Z,71.09
2022-12-28T00:31:09.075Z,70.65
2022-12-28T00:34:11.773Z,71.16
2022-12-28T00:37:15.562Z,71.13
2022-12-28T00:40:23.959Z,71.38
2022-12-28T00:43:28.810Z,70.81
2022-12-28T00:46:32.557Z,70.46
2022-12-28T00:49:35.277Z,70.88
2022-12-28T00:52:39.119Z,70.99
2022-12-28T00:55:43.311Z,70.64
2022-12-28T00:58:47.765Z,70.90
2022-12-28T01:01:51.672Z,71.23
2022-12-28T01:04:54.476Z,69.70
2022-12-28T01:07:58.211Z,69.13
2022-12-28T01:11:07.969Z,70.26
2022-12-28T01:14:11.916Z,69.90
2022-12-28T01:17:15.827Z,69.37
2022-12-28T01:20:18.792Z,68.58
2022-12-28T01:23:22.568Z,69.08
2022-12-28T01:26:28.745Z,68.80
2022-12-28T01:29:32.751Z,69.33
2022-12-28T01:32:36.544Z,69.37
2022-12-28T01:35:39.497Z,69.90
2022-12-28T01:38:43.307Z,69.18
2022-12-28T01:41:48.023Z,68.68
2022-12-28T01:44:53.122Z,68.53
2022-12-28T01:47:58.209Z,68.49
2022-12-28T01:51:00.933Z,68.64
2022-12-28T01:54:06.708Z,67.62
2022-12-28T01:57:11.083Z,69.03
2022-12-28T02:00:19.059Z,69.26
2022-12-28T02:03:26.849Z,69.12
2022-12-28T02:06:29.845Z,69.04
2022-12-28T02:09:39.203Z,68.98
2022-12-28T02:12:44.298Z,68.30
2022-12-28T02:15:49.543Z,68.20
2022-12-28T02:18:54.496Z,68.42
2022-12-28T02:22:18.249Z,68.63
2022-12-28T02:25:44.736Z,68.15
2022-12-28T02:29:18.476Z,67.89
2022-12-28T02:32:56.385Z,67.08
2022-12-28T02:36:06.850Z,68.48
2022-12-28T02:39:14.450Z,68.28
2022-12-28T02:42:21.770Z,68.49
2022-12-28T02:46:02.906Z,69.02
2022-12-28T02:49:47.537Z,67.53
2022-12-28T02:53:12.624Z,68.51
2022-12-28T02:56:29.917Z,67.88
2022-12-28T02:59:49.266Z,67.17
2022-12-28T03:03:02.515Z,68.18
2022-12-28T03:06:33.443Z,67.13
2022-12-28T03:09:41.407Z,67.71
2022-12-28T03:12:51.608Z,67.70
2022-12-28T03:15:56.711Z,68.08
2022-12-28T03:19:21.879Z,67.73
2022-12-28T03:22:45.304Z,68.11
2022-12-28T03:26:06.123Z,68.16
2022-12-28T03:29:29.718Z,68.66
2022-12-28T03:32:32.870Z,68.02
2022-12-28T03:35:45.817Z,68.22
2022-12-28T03:38:56.165Z,67.20
2022-12-28T03:42:20.200Z,68.32
2022-12-28T03:45:45.800Z,66.96
2022-12-28T03:48:52.572Z,67.57
2022-12-28T03:51:57.464Z,68.34
2022-12-28T03:55:01.752Z,68.29
2022-12-28T03:58:04.570Z,67.74
2022-12-28T04:01:08.940Z,67.75
2022-12-28T04:04:13.720Z,68.80
2022-12-28T04:07:17.775Z,69.01
2022-12-28T04:10:21.808Z,67.76
2022-12-28T04:13:24.623Z,68.50
2022-12-28T04:16:28.624Z,68.23
2022-12-28T04:19:31.388Z,68.08
2022-12-28T04:22:36.702Z,67.84
2022-12-28T04:25:39.436Z,68.14
2022-12-28T04:28:44.204Z,67.33
2022-12-28T04:31:47.310Z,68.01
2022-12-28T04:34:51.343Z,67.66
2022-12-28T04:37:56.694Z,67.01
2022-12-28T04:40:59.424Z,67.59
2022-12-28T04:44:03.607Z,68.34
2022-12-28T04:47:06.398Z,68.22
2022-12-28T04:50:11.287Z,68.78
2022-12-28T04:53:16.665Z,68.19
2022-12-28T04:56:20.776Z,68.07
2022-12-28T04:59:24.978Z,67.85
2022-12-28T05:02:27.865Z,67.46
2022-12-28T05:05:32.615Z,68.25
2022-12-28T05:08:39.328Z,67.76
2022-12-28T05:11:42.127Z,66.86
2022-12-28T05:14:46.198Z,66.51
2022-12-28T05:17:49.320Z,67.18
2022-12-28T05:20:53.346Z,67.44
2022-12-28T05:23:59.157Z,67.83
2022-12-28T05:27:01.914Z,67.49
2022-12-28T05:30:06.617Z,67.72
2022-12-28T05:33:09.312Z,67.65
2022-12-28T05:36:14.919Z,67.29
2022-12-28T05:39:20.281Z,67.32
2022-12-28T05:42:23.095Z,67.39
2022-12-28T05:45:27.112Z,66.64
2022-12-28T05:48:32.403Z,67.52
2022-12-28T05:51:37.933Z,66.35
2022-12-28T05:58:05.670Z,66.86
2022-12-28T06:01:11.765Z,67.01
2022-12-28T06:04:17.504Z,67.21
2022-12-28T06:07:21.616Z,67.33
2022-12-28T06:10:27.026Z,66.55
2022-12-28T06:13:30.828Z,66.79
2022-12-28T06:16:37.668Z,66.94
2022-12-28T06:19:40.414Z,66.33
2022-12-28T06:22:44.452Z,66.38
2022-12-28T06:25:49.803Z,66.61
2022-12-28T06:28:53.854Z,67.15
2022-12-28T06:32:00.247Z,66.39
2022-12-28T06:35:04.952Z,65.61
2022-12-28T06:38:08.894Z,67.14
2022-12-28T06:41:15.905Z,66.35
2022-12-28T06:44:18.575Z,66.39
2022-12-28T06:47:22.640Z,68.66
2022-12-28T06:50:25.433Z,68.71
2022-12-28T06:53:31.196Z,68.18
2022-12-28T06:59:58.269Z,68.74
2022-12-28T07:03:02.366Z,69.22
2022-12-28T07:06:06.388Z,68.62
2022-12-28T07:09:13.668Z,68.76
2022-12-28T07:12:19.249Z,69.08
2022-12-28T07:15:22.061Z,69.00
2022-12-28T07:21:46.175Z,69.41
2022-12-28T07:24:50.203Z,70.80
2022-12-28T07:27:55.639Z,70.70
2022-12-28T07:30:58.473Z,71.45
2022-12-28T07:34:03.231Z,70.97
2022-12-28T07:37:07.250Z,69.85
2022-12-28T07:40:11.411Z,70.48
2022-12-28T07:46:38.718Z,71.05
2022-12-28T07:49:43.156Z,71.09
2022-12-28T07:52:46.104Z,70.97
2022-12-28T07:55:57.397Z,71.44
2022-12-28T07:59:04.572Z,71.66
2022-12-28T08:02:09.137Z,72.63
2022-12-28T08:05:11.953Z,72.68
2022-12-28T08:11:38.264Z,72.17
2022-12-28T08:14:43.578Z,71.65
2022-12-28T08:17:47.602Z,72.45
2022-12-28T08:20:50.317Z,72.13
2022-12-28T08:27:15.435Z,72.53
2022-12-28T08:30:21.780Z,72.52
2022-12-28T08:33:25.781Z,72.42
2022-12-28T08:36:29.239Z,71.62
2022-12-28T08:39:33.224Z,71.37
2022-12-28T08:42:37.457Z,71.81
2022-12-28T08:45:42.816Z,71.87
2022-12-28T08:48:46.673Z,72.56
2022-12-28T08:51:50.720Z,71.65
2022-12-28T08:54:54.776Z,72.19
2022-12-28T08:57:57.957Z,71.60
2022-12-28T09:01:09.926Z,71.69
2022-12-28T09:04:15.390Z,70.58
2022-12-28T09:07:18.097Z,70.94
2022-12-28T09:10:22.146Z,72.37
2022-12-28T09:13:25.211Z,71.85
2022-12-28T09:16:31.034Z,71.92
2022-12-28T09:19:33.755Z,71.85
2022-12-28T09:22:37.701Z,71.13
2022-12-28T09:25:41.761Z,70.91
2022-12-28T09:28:46.253Z,70.81
2022-12-28T09:31:51.716Z,70.19
2022-12-28T09:34:55.697Z,69.49
2022-12-28T09:37:58.639Z,69.25
2022-12-28T09:41:02.649Z,69.51
2022-12-28T09:44:21.084Z,70.54
2022-12-28T09:47:32.857Z,70.22
2022-12-28T09:50:37.443Z,70.37
2022-12-28T09:53:40.181Z,68.97
2022-12-28T10:00:16.964Z,68.52
2022-12-28T10:03:25.968Z,69.93
2022-12-28T10:06:32.273Z,70.33
2022-12-28T10:09:36.811Z,67.40
2022-12-28T10:12:40.778Z,68.74
2022-12-28T10:15:43.650Z,69.36
2022-12-28T10:18:50.723Z,67.63
2022-12-28T10:22:01.877Z,68.53
2022-12-28T10:25:14.376Z,69.25
2022-12-28T10:28:20.426Z,70.90
2022-12-28T10:31:34.046Z,70.13
2022-12-28T10:34:39.515Z,70.97
2022-12-28T10:37:46.804Z,70.96
2022-12-28T10:40:59.308Z,71.25
2022-12-28T10:47:46.427Z,71.77
2022-12-28T10:50:54.804Z,71.11
2022-12-28T10:54:00.561Z,70.86
2022-12-28T10:57:05.119Z,70.39
2022-12-28T11:00:23.519Z,70.98
2022-12-28T11:03:29.545Z,70.04
2022-12-28T11:06:35.429Z,70.77
2022-12-28T11:09:39.375Z,70.40
2022-12-28T11:12:45.162Z,70.62
2022-12-28T11:15:49.199Z,69.54
2022-12-28T11:18:52.239Z,70.06
2022-12-28T11:21:57.974Z,68.83
2022-12-28T11:25:03.968Z,69.77
2022-12-28T11:28:16.222Z,69.78
2022-12-28T11:31:26.683Z,68.76
2022-12-28T11:34:32.936Z,68.85
2022-12-28T11:37:38.268Z,68.75
2022-12-28T11:40:53.709Z,68.70
2022-12-28T11:43:57.644Z,68.66
2022-12-28T11:47:06.972Z,69.74
2022-12-28T11:50:42.194Z,68.68
2022-12-28T11:54:00.241Z,67.89
2022-12-28T11:57:03.417Z,68.05
2022-12-28T12:00:50.483Z,68.32
2022-12-28T12:04:20.304Z,68.36
2022-12-28T12:07:52.772Z,69.03
2022-12-28T12:11:30.875Z,68.46
2022-12-28T12:14:39.967Z,67.39
2022-12-28T12:17:46.393Z,68.08
2022-12-28T12:20:58.430Z,67.43
2022-12-28T12:24:11.163Z,68.29
2022-12-28T12:27:21.075Z,66.90
2022-12-28T12:30:25.965Z,67.22
2022-12-28T12:33:32.721Z,66.85
2022-12-28T12:37:08.091Z,66.45
2022-12-28T12:40:57.237Z,67.41
2022-12-28T12:44:18.654Z,67.53
2022-12-28T12:47:49.090Z,68.24
2022-12-28T12:51:16.413Z,67.09
2022-12-28T12:54:33.714Z,67.35
2022-12-28T12:57:46.578Z,67.42
2022-12-28T13:01:07.910Z,67.46
2022-12-28T13:04:20.509Z,67.27
2022-12-28T13:07:26.797Z,66.16
2022-12-28T13:10:36.019Z,67.20
2022-12-28T13:13:42.731Z,67.03
2022-12-28T13:16:50.178Z,67.12
2022-12-28T13:20:07.970Z,67.53
2022-12-28T13:23:18.212Z,67.53
2022-12-28T13:26:28.675Z,68.07
2022-12-28T13:29:39.021Z,68.22
2022-12-28T13:32:53.414Z,67.75
2022-12-28T13:36:06.578Z,67.32
2022-12-28T13:42:52.744Z,67.12
2022-12-28T13:45:58.788Z,66.33
2022-12-28T13:49:04.360Z,67.23
2022-12-28T13:52:13.165Z,65.73
2022-12-28T13:55:20.827Z,67.00
2022-12-28T13:58:29.697Z,67.84
2022-12-28T14:01:38.265Z,67.86
2022-12-28T14:04:52.980Z,67.86
2022-12-28T14:07:58.814Z,68.27
2022-12-28T14:11:03.635Z,68.35
2022-12-28T14:14:09.575Z,68.23
2022-12-28T14:17:14.403Z,69.34
2022-12-28T14:20:20.170Z,68.48
2022-12-28T14:23:25.159Z,68.71
2022-12-28T14:26:29.772Z,68.94
2022-12-28T14:29:34.985Z,68.58
2022-12-28T14:32:42.809Z,67.70
2022-12-28T14:35:51.695Z,68.80
2022-12-28T14:39:04.218Z,68.88
2022-12-28T14:42:22.190Z,68.17
2022-12-28T14:46:05.059Z,68.46
2022-12-28T14:49:33.622Z,69.40
2022-12-28T14:52:43.073Z,69.54
2022-12-28T14:56:01.626Z,69.45
2022-12-28T14:59:04.883Z,68.95
2022-12-28T15:05:39.639Z,68.86
2022-12-28T15:08:44.989Z,69.22
2022-12-28T15:11:47.725Z,69.51
2022-12-28T15:14:52.110Z,70.05
2022-12-28T15:17:54.758Z,69.40
2022-12-28T15:20:59.676Z,69.11
2022-12-28T15:24:05.098Z,69.31
2022-12-28T15:27:07.883Z,69.67
2022-12-28T15:30:18.749Z,69.35
2022-12-28T15:33:23.194Z,70.09
2022-12-28T15:36:27.290Z,69.83
2022-12-28T15:39:33.314Z,70.53
2022-12-28T15:42:40.314Z,69.08
2022-12-28T15:49:26.668Z,70.18
2022-12-28T15:52:30.681Z,69.80
2022-12-28T15:55:36.107Z,70.34
2022-12-28T15:58:38.789Z,69.41
2022-12-28T16:05:08.252Z,69.65
2022-12-28T16:08:12.316Z,70.62
2022-12-28T16:11:19.234Z,70.50
2022-12-28T16:14:21.907Z,70.22
2022-12-28T16:20:47.406Z,69.23
2022-12-28T16:23:50.126Z,69.00
2022-12-28T16:30:21.066Z,69.69
2022-12-28T16:33:25.575Z,69.71
2022-12-28T16:36:29.726Z,69.94
2022-12-28T16:39:33.660Z,69.68
2022-12-28T16:42:38.770Z,68.35
2022-12-28T16:45:44.394Z,68.74
2022-12-28T16:48:47.096Z,68.65
2022-12-28T16:51:50.878Z,68.43
2022-12-28T16:54:53.573Z,68.11
2022-12-28T16:57:59.332Z,68.14
2022-12-28T17:01:07.433Z,68.15
2022-12-28T17:04:11.402Z,68.07
2022-12-28T17:07:15.155Z,68.91
2022-12-28T17:10:18.283Z,68.03
2022-12-28T17:13:23.467Z,68.14
2022-12-28T17:16:26.267Z,68.29
2022-12-28T17:19:30.409Z,68.20
2022-12-28T17:22:34.356Z,68.18
2022-12-28T17:25:37.594Z,69.94
2022-12-28T17:28:42.705Z,70.08
2022-12-28T17:31:45.782Z,70.85
2022-12-28T17:34:49.605Z,71.52
2022-12-28T17:37:53.441Z,71.68
2022-12-28T17:40:56.661Z,71.57
2022-12-28T17:44:02.474Z,72.25
2022-12-28T17:47:05.255Z,72.33
2022-12-28T17:50:10.416Z,71.68
2022-12-28T17:53:14.211Z,71.42
2022-12-28T17:56:17.293Z,70.63
2022-12-28T17:59:22.483Z,69.94
2022-12-28T18:02:25.492Z,70.65
2022-12-28T18:05:29.672Z,69.85
2022-12-28T18:08:32.628Z,69.78
2022-12-28T18:11:36.668Z,69.60
2022-12-28T18:14:41.979Z,68.04
2022-12-28T18:17:44.753Z,68.93
2022-12-28T18:20:58.157Z,68.43
2022-12-28T18:24:02.105Z,68.74
2022-12-28T18:27:04.876Z,67.75
2022-12-28T18:30:11.579Z,67.53
2022-12-28T18:33:14.289Z,67.65
2022-12-28T18:36:18.959Z,68.05
2022-12-28T18:39:22.911Z,67.05
2022-12-28T18:42:25.660Z,66.71
2022-12-28T18:45:50.049Z,67.34
2022-12-28T18:48:52.842Z,66.54
2022-12-28T18:51:56.889Z,67.63
2022-12-28T18:55:00.817Z,67.79
2022-12-28T18:58:03.536Z,67.91
2022-12-28T19:01:25.415Z,68.71
2022-12-28T19:04:34.406Z,69.39
2022-12-28T19:07:37.275Z,70.33
2022-12-28T19:10:41.229Z,70.44
2022-12-28T19:13:45.175Z,71.51
2022-12-28T19:16:50.493Z,71.09
2022-12-28T19:19:53.219Z,72.65
2022-12-28T19:22:57.159Z,73.59
2022-12-28T19:26:01.558Z,72.74
2022-12-28T19:29:06.956Z,73.31
2022-12-28T19:32:12.359Z,73.42
2022-12-28T19:35:15.812Z,74.02
2022-12-28T19:38:19.746Z,75.77
2022-12-28T19:41:24.664Z,75.84
2022-12-28T19:44:27.373Z,75.78
2022-12-28T19:47:32.747Z,75.08
2022-12-28T19:50:35.461Z,75.31
2022-12-28T19:53:39.727Z,75.86
2022-12-28T19:56:43.701Z,77.14
2022-12-28T19:59:46.351Z,77.42
2022-12-28T20:02:51.820Z,76.17
2022-12-28T20:05:54.595Z,76.26
2022-12-28T20:09:01.247Z,77.67
2022-12-28T20:12:05.187Z,77.12
2022-12-28T20:15:08.669Z,77.46
2022-12-28T20:18:13.969Z,76.37
2022-12-28T20:21:20.065Z,76.08
2022-12-28T20:24:24.913Z,75.73
2022-12-28T20:27:31.754Z,76.73
2022-12-28T20:30:34.448Z,74.45
2022-12-28T20:33:40.661Z,75.05
2022-12-28T20:36:43.376Z,75.59
2022-12-28T20:39:47.663Z,75.31
2022-12-28T20:43:14.213Z,76.15
2022-12-28T20:46:16.930Z,75.50
2022-12-28T20:49:22.394Z,74.93
2022-12-28T20:52:25.173Z,74.86
2022-12-28T20:55:29.177Z,73.95
2022-12-28T20:58:33.096Z,73.18
2022-12-28T21:01:36.905Z,74.42
2022-12-28T21:04:42.305Z,73.75
2022-12-28T21:07:44.976Z,73.97
2022-12-28T21:10:49.130Z,73.98
2022-12-28T21:13:53.537Z,73.99
2022-12-28T21:16:56.229Z,72.80
2022-12-28T21:20:01.511Z,73.09
2022-12-28T21:23:04.253Z,73.06
2022-12-28T21:26:10.222Z,73.29
2022-12-28T21:29:12.871Z,73.55
2022-12-28T21:32:16.829Z,72.80
2022-12-28T21:38:44.905Z,70.98
2022-12-28T21:41:50.574Z,71.85
2022-12-28T21:44:54.582Z,71.51
2022-12-28T21:47:57.274Z,70.35
2022-12-28T21:51:28.343Z,70.48
2022-12-28T21:54:32.351Z,70.50
2022-12-28T21:57:36.281Z,70.46
2022-12-28T22:00:57.984Z,69.78
2022-12-28T22:04:18.371Z,71.72
2022-12-28T22:07:25.067Z,70.37
2022-12-28T22:10:47.225Z,69.90
2022-12-28T22:13:53.581Z,69.20
2022-12-28T22:16:57.914Z,69.46
2022-12-28T22:20:00.597Z,69.73
2022-12-28T22:23:07.547Z,69.15
2022-12-28T22:26:10.485Z,69.95
2022-12-28T22:29:14.567Z,70.44
2022-12-28T22:32:17.432Z,69.74
2022-12-28T22:35:21.658Z,68.04
2022-12-28T22:38:26.967Z,67.98
2022-12-28T22:41:29.641Z,69.24
2022-12-28T22:44:33.553Z,68.36
2022-12-28T22:47:37.540Z,68.22
2022-12-28T22:50:43.287Z,68.86
2022-12-28T22:53:51.090Z,69.08
2022-12-28T22:56:53.799Z,68.93
2022-12-28T22:59:57.844Z,69.60
2022-12-28T23:03:00.617Z,70.45
2022-12-28T23:06:04.641Z,70.18
2022-12-28T23:09:09.915Z,71.24
2022-12-28T23:12:13.864Z,71.85
2022-12-28T23:15:20.172Z,72.11
2022-12-28T23:18:41.695Z,73.38
2022-12-28T23:22:01.990Z,72.39
2022-12-28T23:25:25.911Z,72.42
2022-12-28T23:28:30.250Z,72.71
2022-12-28T23:31:32.924Z,72.38
2022-12-28T23:37:56.952Z,73.68
2022-12-28T23:41:24.197Z,72.82
2022-12-28T23:44:28.957Z,72.33
2022-12-28T23:47:31.687Z,73.10
2022-12-28T23:50:35.645Z,71.81
2022-12-28T23:53:38.327Z,72.67
2022-12-28T23:56:44.219Z,71.34
2022-12-28T23:59:48.780Z,71.99
